Time;durP1;ratioP1;P1;durP2;ratioP2;P2;SDS_P1;SDS_P2;PMS_P1;PMS_P2;Temp;Humidity;BMP_temperature;BMP_pressure;BME280_temperature;BME280_humidity;BME280_pressure;Samples;Min_cycle;Max_cycle;Signal;HPM_P1;HPM_P2
2021/04/16 00:00:48;;;;;;;4.03;2.80;;;;;;;7.51;47.88;98688.25;8263054;28;20610;-65
2021/04/16 00:04:50;;;;;;;3.30;2.70;;;;;;;7.52;48.01;98686.50;8264187;28;20236;-65
2021/04/16 00:08:52;;;;;;;4.17;2.73;;;;;;;7.55;48.21;98679.56;8264683;28;20675;-65
2021/04/16 00:12:54;;;;;;;3.77;2.90;;;;;;;7.57;48.33;98677.81;8264652;28;20201;-65
2021/04/16 00:16:57;;;;;;;4.30;2.73;;;;;;;7.49;48.57;98678.88;8264478;28;20244;-65
2021/04/16 00:20:59;;;;;;;3.83;3.07;;;;;;;7.56;48.65;98673.53;8264211;28;20351;-66
2021/04/16 00:25:02;;;;;;;3.27;2.97;;;;;;;7.44;48.48;98674.66;8263964;28;20213;-65
2021/04/16 00:29:04;;;;;;;4.57;3.40;;;;;;;7.48;49.01;98669.41;8263961;28;20228;-65
2021/04/16 00:33:07;;;;;;;3.47;2.80;;;;;;;7.44;49.39;98666.06;8264288;28;20212;-65
2021/04/16 00:37:09;;;;;;;4.50;2.97;;;;;;;7.36;49.49;98661.06;8264094;28;20642;-65
2021/04/16 00:41:13;;;;;;;6.17;2.90;;;;;;;7.39;49.50;98665.31;8263613;28;20202;-65
2021/04/16 00:45:16;;;;;;;5.50;3.07;;;;;;;7.44;49.38;98660.91;8263261;28;20217;-66
2021/04/16 00:49:22;;;;;;;3.10;2.80;;;;;;;7.47;49.02;98660.84;8263445;28;20206;-65
2021/04/16 00:53:25;;;;;;;3.73;3.00;;;;;;;7.42;49.54;98657.50;8263171;28;20209;-65
2021/04/16 00:57:26;;;;;;;2.97;2.67;;;;;;;7.51;49.30;98657.31;8263738;28;20205;-66
2021/04/16 01:01:29;;;;;;;3.47;2.87;;;;;;;7.50;49.32;98657.34;8264150;28;20206;-66
2021/04/16 01:05:32;;;;;;;3.67;2.80;;;;;;;7.36;49.50;98650.75;8263692;28;20229;-66
2021/04/16 01:09:34;;;;;;;2.97;2.67;;;;;;;7.39;49.73;98648.13;8263810;28;20213;-66
2021/04/16 01:13:37;;;;;;;3.20;2.70;;;;;;;7.44;49.87;98642.84;8263642;28;20225;-66
2021/04/16 01:17:40;;;;;;;3.20;2.90;;;;;;;7.43;50.03;98636.88;8263349;28;20295;-65
2021/04/16 01:21:47;;;;;;;4.50;3.30;;;;;;;7.41;49.97;98646.34;8268931;28;20256;-65
2021/04/16 01:25:50;;;;;;;3.40;3.10;;;;;;;7.47;50.02;98644.53;8270428;28;20241;-65
2021/04/16 01:29:52;;;;;;;3.20;2.90;;;;;;;7.38;50.37;98635.25;8269483;28;20228;-65
2021/04/16 01:33:54;;;;;;;3.10;2.80;;;;;;;7.34;50.51;98639.63;8269502;28;20212;-65
2021/04/16 01:37:56;;;;;;;4.10;3.70;;;;;;;7.32;50.86;98636.25;8269362;28;20206;-65
2021/04/16 01:42:00;;;;;;;4.50;3.57;;;;;;;7.27;51.25;98630.31;8269133;28;20225;-65
2021/04/16 01:46:05;;;;;;;3.70;3.40;;;;;;;7.28;50.93;98631.19;8269172;28;20226;-64
2021/04/16 01:50:08;;;;;;;3.30;3.00;;;;;;;7.35;50.61;98617.28;8270208;28;20194;-64
2021/04/16 01:54:13;;;;;;;3.73;3.23;;;;;;;7.25;50.62;98611.47;8269401;28;20208;-64
2021/04/16 01:58:16;;;;;;;4.37;2.90;;;;;;;7.19;50.71;98617.59;8269485;28;20235;-65
2021/04/16 02:02:21;;;;;;;4.50;3.27;;;;;;;7.13;50.71;98619.47;8268774;28;20205;-66
2021/04/16 02:06:24;;;;;;;4.10;3.20;;;;;;;7.16;50.94;98611.66;8269128;28;20233;-65
2021/04/16 02:10:25;;;;;;;3.87;3.30;;;;;;;7.29;50.59;98595.09;8269926;28;20210;-66
2021/04/16 02:14:30;;;;;;;3.40;3.10;;;;;;;7.27;50.88;98604.56;8269072;28;20571;-65
2021/04/16 02:18:31;;;;;;;3.30;3.00;;;;;;;7.24;50.79;98614.94;8268950;28;20244;-66
2021/04/16 02:22:33;;;;;;;3.13;2.83;;;;;;;7.25;51.01;98593.44;8268915;28;20201;-65
2021/04/16 02:26:36;;;;;;;3.10;2.80;;;;;;;7.08;51.21;98598.94;8268348;28;20284;-65
2021/04/16 02:30:38;;;;;;;4.60;3.47;;;;;;;7.02;51.51;98596.50;8266978;28;20233;-64
2021/04/16 02:34:41;;;;;;;3.63;3.23;;;;;;;7.10;51.26;98592.06;8268662;28;20538;-64
2021/04/16 02:38:43;;;;;;;4.03;3.23;;;;;;;7.15;50.90;98599.66;8267875;28;20206;-65
2021/04/16 02:42:45;;;;;;;3.83;2.73;;;;;;;6.96;51.53;98599.19;8267891;28;20209;-65
2021/04/16 02:46:48;;;;;;;3.30;2.97;;;;;;;7.07;51.06;98580.97;8267803;28;20641;-65
2021/04/16 02:50:51;;;;;;;3.27;2.87;;;;;;;6.90;51.58;98583.88;8267509;28;20566;-65
2021/04/16 02:54:53;;;;;;;4.87;2.83;;;;;;;7.02;51.76;98591.34;8267220;28;20202;-64
2021/04/16 02:58:57;;;;;;;3.43;2.77;;;;;;;6.95;51.67;98587.19;8267196;28;20202;-66
2021/04/16 03:03:00;;;;;;;3.30;3.00;;;;;;;7.09;51.61;98574.03;8266959;28;20214;-66
2021/04/16 03:07:02;;;;;;;4.00;2.93;;;;;;;7.16;51.44;98581.63;8266824;28;20332;-66
2021/04/16 03:11:04;;;;;;;3.83;2.80;;;;;;;7.16;51.46;98575.59;8266720;28;20520;-66
2021/04/16 03:15:07;;;;;;;3.10;2.67;;;;;;;7.15;51.60;98573.91;8266256;28;20277;-66
2021/04/16 03:19:11;;;;;;;3.23;2.93;;;;;;;7.09;52.04;98574.03;8265802;28;20238;-65
2021/04/16 03:23:13;;;;;;;5.27;2.87;;;;;;;7.04;52.15;98577.56;8266118;28;20588;-66
2021/04/16 03:27:15;;;;;;;3.20;2.90;;;;;;;7.03;52.48;98580.16;8265736;28;20225;-66
2021/04/16 03:31:17;;;;;;;4.83;2.60;;;;;;;7.09;52.16;98567.16;8265865;28;20264;-67
2021/04/16 03:35:21;;;;;;;3.87;3.00;;;;;;;7.02;52.72;98561.28;8266714;28;20212;-67
2021/04/16 03:39:23;;;;;;;3.87;2.50;;;;;;;7.09;53.20;98568.91;8265946;28;20669;-67
2021/04/16 03:43:24;;;;;;;3.30;3.00;;;;;;;7.14;52.38;98567.91;8265795;28;20208;-66
2021/04/16 03:47:26;;;;;;;2.87;2.57;;;;;;;7.13;52.44;98566.22;8265428;28;20225;-67
2021/04/16 03:51:30;;;;;;;3.43;2.97;;;;;;;7.11;52.35;98567.97;8265915;28;20247;-66
2021/04/16 03:55:33;;;;;;;3.10;2.60;;;;;;;6.99;52.73;98569.06;8265235;28;20197;-67
2021/04/16 03:59:38;;;;;;;3.77;2.77;;;;;;;7.09;52.48;98571.47;8265173;28;20240;-66
2021/04/16 04:03:40;;;;;;;3.23;2.90;;;;;;;7.04;52.54;98569.84;8265531;28;20210;-67
2021/04/16 04:07:43;;;;;;;3.33;2.90;;;;;;;6.96;52.92;98556.25;8265168;28;20233;-67
2021/04/16 04:11:45;;;;;;;3.23;2.93;;;;;;;6.85;53.39;98568.50;8264585;28;20208;-67
2021/04/16 04:15:47;;;;;;;4.00;3.03;;;;;;;7.05;52.71;98557.81;8264203;28;20246;-65
2021/04/16 04:20:02;;;;;;;5.07;3.17;;;;;;;7.02;53.03;98560.44;8264458;28;20210;-65
2021/04/16 04:24:06;;;;;;;4.23;2.90;;;;;;;6.81;53.58;98565.13;8265395;28;20212;-65
2021/04/16 04:28:08;;;;;;;3.80;3.27;;;;;;;6.90;53.12;98569.25;8264141;28;20262;-65
2021/04/16 04:32:10;;;;;;;3.30;3.00;;;;;;;7.02;53.02;98568.16;8264020;28;20220;-65
2021/04/16 04:36:12;;;;;;;3.60;3.00;;;;;;;6.89;53.44;98566.72;8264207;28;20206;-67
2021/04/16 04:40:17;;;;;;;3.30;2.97;;;;;;;7.11;52.84;98565.41;8263936;28;20523;-65
2021/04/16 04:44:19;;;;;;;3.73;3.20;;;;;;;7.10;52.94;98560.28;8263670;28;20212;-65
2021/04/16 04:48:21;;;;;;;3.37;2.90;;;;;;;7.08;53.01;98570.59;8263946;28;20642;-66
2021/04/16 04:52:26;;;;;;;4.03;3.67;;;;;;;6.95;53.17;98574.31;8263333;28;20288;-66
2021/04/16 04:56:29;;;;;;;4.90;3.37;;;;;;;7.05;53.20;98570.69;8262826;28;20224;-65
2021/04/16 05:00:31;;;;;;;3.97;3.40;;;;;;;7.02;53.58;98574.16;8263439;28;20206;-65
2021/04/16 05:04:33;;;;;;;4.50;3.53;;;;;;;6.99;53.45;98579.38;8262405;28;20677;-66
2021/04/16 05:08:35;;;;;;;4.20;3.60;;;;;;;6.85;53.82;98591.66;8258935;28;20537;-68
2021/04/16 05:12:38;;;;;;;3.80;3.50;;;;;;;6.77;54.14;98589.25;8260895;28;20210;-65
2021/04/16 05:16:40;;;;;;;4.10;3.67;;;;;;;6.95;53.26;98588.06;8260431;28;20309;-65
2021/04/16 05:20:42;;;;;;;4.13;3.70;;;;;;;6.65;54.17;98589.47;8259596;28;20300;-66
2021/04/16 05:24:43;;;;;;;4.20;3.80;;;;;;;6.84;53.46;98588.25;8260173;28;20888;-68
2021/04/16 05:28:46;;;;;;;5.77;3.47;;;;;;;6.89;53.59;98589.88;8260135;28;20229;-65
2021/04/16 05:32:48;;;;;;;4.27;3.73;;;;;;;6.90;53.21;98592.44;8260508;28;20206;-66
2021/04/16 05:36:50;;;;;;;3.93;3.53;;;;;;;6.96;53.42;98586.31;8261910;28;20232;-66
2021/04/16 05:40:52;;;;;;;4.87;3.57;;;;;;;7.09;53.25;98586.94;8261824;28;20198;-65
2021/04/16 05:44:55;;;;;;;3.80;3.50;;;;;;;7.11;52.96;98586.00;8230951;28;20210;-65
2021/04/16 05:48:57;;;;;;;4.37;3.60;;;;;;;7.33;52.80;98581.25;8261440;28;20233;-65
2021/04/16 05:53:02;;;;;;;4.17;3.80;;;;;;;7.37;52.28;98585.47;8263150;28;20202;-65
2021/04/16 05:57:05;;;;;;;3.83;3.47;;;;;;;7.30;52.60;98594.19;8262016;28;20320;-66
2021/04/16 06:01:09;;;;;;;7.00;3.70;;;;;;;7.68;51.45;98596.84;8262059;28;20210;-65
2021/04/16 06:05:15;;;;;;;4.20;3.60;;;;;;;7.64;51.13;98594.31;8261913;28;20206;-67
2021/04/16 06:09:22;;;;;;;5.80;3.20;;;;;;;7.53;51.56;98600.59;8265723;28;20214;-65
2021/04/16 06:13:26;;;;;;;3.57;3.27;;;;;;;7.73;50.76;98593.25;8267020;28;20202;-71
2021/04/16 06:17:29;;;;;;;4.03;3.30;;;;;;;8.08;50.26;98601.91;8267029;28;20289;-66
2021/04/16 06:21:31;;;;;;;3.93;3.53;;;;;;;8.10;49.94;98597.53;8267255;28;20218;-66
2021/04/16 06:25:34;;;;;;;5.37;3.43;;;;;;;7.93;50.05;98605.69;8267326;28;20206;-65
2021/04/16 06:29:36;;;;;;;3.90;3.10;;;;;;;7.85;50.11;98602.44;8267442;28;20289;-66
2021/04/16 06:33:39;;;;;;;3.00;2.80;;;;;;;7.90;49.55;98604.91;8267066;28;20209;-66
2021/04/16 06:37:41;;;;;;;5.13;3.13;;;;;;;7.49;49.32;98604.13;8267036;28;20218;-66
2021/04/16 06:41:46;;;;;;;3.40;3.10;;;;;;;7.43;49.64;98599.94;8266800;28;20206;-66
2021/04/16 06:45:52;;;;;;;3.43;3.07;;;;;;;7.54;49.41;98603.16;8267138;28;20198;-66
2021/04/16 06:49:58;;;;;;;3.33;3.03;;;;;;;7.56;48.36;98601.38;8267242;28;20520;-67
2021/04/16 06:54:03;;;;;;;3.40;3.10;;;;;;;7.19;49.46;98609.03;8266901;28;20210;-67
2021/04/16 06:58:09;;;;;;;3.67;3.03;;;;;;;7.49;49.09;98604.97;8263435;28;20213;-66
2021/04/16 07:02:16;;;;;;;4.43;3.60;;;;;;;8.15;47.30;98595.72;8266653;28;20202;-67
2021/04/16 07:06:23;;;;;;;3.43;3.13;;;;;;;8.37;45.92;98595.16;8266969;28;20228;-67
2021/04/16 07:10:27;;;;;;;5.00;3.47;;;;;;;8.47;45.51;98595.81;8264056;28;20234;-66
2021/04/16 07:14:32;;;;;;;3.43;3.13;;;;;;;8.40;45.36;98600.25;8265445;28;20669;-67
2021/04/16 07:18:37;;;;;;;3.33;3.03;;;;;;;8.21;45.52;98600.72;8264284;28;20593;-66
2021/04/16 07:22:42;;;;;;;3.40;3.13;;;;;;;8.68;45.07;98599.56;8265049;28;20500;-66
2021/04/16 07:26:45;;;;;;;3.13;2.77;;;;;;;9.61;42.73;98597.81;8267064;28;20218;-66
2021/04/16 07:30:50;;;;;;;3.27;2.97;;;;;;;10.07;41.05;98596.34;8266236;28;20427;-66
2021/04/16 07:34:54;;;;;;;5.10;2.93;;;;;;;10.32;41.03;98602.47;8265859;28;20198;-67
2021/04/16 07:39:23;;;;;;;4.00;2.93;;;;;;;11.15;39.63;98601.31;8266135;28;20206;-66
2021/04/16 07:43:45;;;;;;;3.30;3.00;;;;;;;10.70;39.84;98602.06;8260273;28;20221;-66
2021/04/16 07:47:47;;;;;;;5.37;3.23;;;;;;;10.71;40.15;98607.19;8262459;28;20221;-66
2021/04/16 07:51:51;;;;;;;4.97;3.30;;;;;;;10.23;41.02;98601.91;8265403;28;20312;-66
2021/04/16 07:56:10;;;;;;;3.13;2.90;;;;;;;10.10;40.63;98604.88;8265636;28;20217;-66
2021/04/16 08:00:25;;;;;;;8.87;3.17;;;;;;;11.78;43.68;98600.69;8259761;28;20214;-71
2021/04/16 08:04:32;;;;;;;5.97;2.73;;;;;;;12.41;38.86;98595.59;8259486;28;20299;-72
2021/04/16 08:08:35;;;;;;;3.40;3.10;;;;;;;11.45;38.05;98596.75;8264980;28;20681;-66
2021/04/16 08:12:38;;;;;;;3.50;3.20;;;;;;;10.36;40.24;98603.22;8265146;28;20248;-67
2021/04/16 08:16:42;;;;;;;4.20;3.80;;;;;;;9.82;41.00;98604.91;8264559;28;20241;-67
2021/04/16 08:20:54;;;;;;;3.57;3.27;;;;;;;9.93;41.21;98607.16;8266056;28;20225;-67
2021/04/16 08:25:01;;;;;;;4.50;3.63;;;;;;;10.22;41.42;98611.38;8264707;28;20281;-66
2021/04/16 08:29:07;;;;;;;4.77;4.10;;;;;;;10.20;41.10;98610.59;8264368;28;20609;-66
2021/04/16 08:33:17;;;;;;;4.37;3.97;;;;;;;10.14;41.21;98613.38;8263751;28;20205;-66
2021/04/16 08:37:22;;;;;;;3.70;3.40;;;;;;;9.67;42.25;98614.00;8264572;28;20209;-67
2021/04/16 08:41:25;;;;;;;10.23;4.10;;;;;;;10.04;41.29;98607.66;8247207;28;20265;-67
2021/04/16 08:45:32;;;;;;;3.67;3.33;;;;;;;9.48;41.78;98611.13;8231680;28;20206;-66
2021/04/16 08:49:35;;;;;;;4.00;3.67;;;;;;;9.73;41.44;98612.97;8231371;28;20245;-67
2021/04/16 08:53:39;;;;;;;5.50;4.17;;;;;;;9.81;41.60;98617.91;8232672;28;20233;-66
2021/04/16 08:57:51;;;;;;;4.03;3.20;;;;;;;9.09;42.36;98618.25;8260603;28;20202;-66
2021/04/16 09:01:57;;;;;;;3.67;3.37;;;;;;;9.31;42.38;98619.34;8263605;28;20212;-66
2021/04/16 09:06:02;;;;;;;4.67;2.90;;;;;;;9.20;42.44;98622.25;8263051;28;20186;-67
2021/04/16 09:10:10;;;;;;;5.60;3.30;;;;;;;9.02;43.15;98621.91;8256696;28;20276;-67
2021/04/16 09:14:50;;;;;;;3.80;3.50;;;;;;;8.49;45.45;98614.69;8237896;28;20225;-61
2021/04/16 09:18:54;;;;;;;4.20;3.83;;;;;;;8.70;45.85;98621.03;8240112;28;20244;-63
2021/04/16 09:22:57;;;;;;;4.43;4.03;;;;;;;8.43;46.62;98623.44;8266182;28;20194;-62
2021/04/16 09:27:03;;;;;;;4.23;3.87;;;;;;;8.67;46.39;98624.53;8265364;28;20286;-61
2021/04/16 09:31:47;;;;;;;4.53;4.13;;;;;;;9.07;45.41;98618.31;8266814;28;20638;-62
2021/04/16 09:36:00;;;;;;;4.30;3.83;;;;;;;9.32;44.90;98625.38;8264527;28;20288;-61
2021/04/16 09:40:38;;;;;;;3.80;3.50;;;;;;;9.78;44.84;98622.25;8265143;28;20217;-61
2021/04/16 09:44:56;;;;;;;3.90;3.60;;;;;;;10.11;42.79;98621.25;8258383;28;20426;-62
2021/04/16 09:49:02;;;;;;;4.90;3.57;;;;;;;9.58;43.77;98614.25;8270080;28;20695;-62
2021/04/16 09:53:20;;;;;;;3.80;3.40;;;;;;;9.57;42.58;98617.72;8269685;28;20244;-63
2021/04/16 09:57:29;;;;;;;3.57;3.27;;;;;;;9.24;43.45;98620.41;8267069;28;20599;-64
2021/04/16 10:01:32;;;;;;;5.97;5.37;;;;;;;9.03;43.47;98615.84;8263481;28;20202;-62
2021/04/16 10:05:34;;;;;;;4.30;4.00;;;;;;;9.25;44.11;98622.09;8271640;28;20198;-64
2021/04/16 10:09:37;;;;;;;3.50;3.20;;;;;;;9.17;43.54;98617.13;8237918;28;20630;-63
2021/04/16 10:13:40;;;;;;;3.50;3.20;;;;;;;9.44;43.61;98617.25;8237724;28;20199;-65
2021/04/16 10:17:57;;;;;;;3.70;3.40;;;;;;;9.37;43.30;98614.00;8237445;28;20686;-65
2021/04/16 10:22:09;;;;;;;5.03;3.17;;;;;;;9.30;43.59;98611.63;8265385;28;20202;-64
2021/04/16 12:39:10;;;;;;;3.00;2.80;;;;;;;9.30;44.07;98617.66;8274873;28;20360;-69
2021/04/16 12:43:12;;;;;;;4.10;3.70;;;;;;;9.26;44.30;98602.28;8264744;28;20210;-69
2021/04/16 12:47:22;;;;;;;5.20;4.63;;;;;;;9.71;43.99;98609.53;8260187;28;20218;-70
2021/04/16 12:51:24;;;;;;;4.10;3.70;;;;;;;9.64;44.74;98605.47;8264180;28;20555;-69
2021/04/16 12:55:26;;;;;;;4.47;4.07;;;;;;;9.82;44.50;98598.88;8264439;28;20210;-70
2021/04/16 12:59:29;;;;;;;4.10;3.53;;;;;;;10.01;44.87;98600.00;8264585;28;20662;-70
2021/04/16 13:03:35;;;;;;;6.63;6.03;;;;;;;10.09;45.30;98607.50;8270122;28;20202;-70
2021/04/16 13:07:38;;;;;;;3.10;2.80;;;;;;;9.79;44.13;98592.06;8272847;28;20221;-63
2021/04/16 13:11:42;;;;;;;3.10;2.87;;;;;;;9.83;44.56;98588.50;8272895;28;20259;-62
2021/04/16 13:15:47;;;;;;;3.30;3.00;;;;;;;10.14;44.11;98590.09;8257730;28;20631;-61
2021/04/16 13:19:51;;;;;;;3.83;3.10;;;;;;;10.02;44.97;98593.09;8260544;28;20212;-61
2021/04/16 13:23:55;;;;;;;3.67;3.20;;;;;;;9.87;45.05;98590.09;8283159;28;20212;-63
2021/04/16 13:28:05;;;;;;;7.50;3.47;;;;;;;10.06;44.83;98586.91;8281834;28;20283;-64
2021/04/16 13:32:10;;;;;;;4.13;3.60;;;;;;;9.90;45.08;98586.53;8279577;28;20206;-62
2021/04/16 13:36:16;;;;;;;4.00;3.60;;;;;;;9.99;44.47;98588.84;8276596;28;20210;-62
2021/04/16 13:40:19;;;;;;;5.80;3.60;;;;;;;9.90;44.82;98581.38;8274228;28;20276;-63
2021/04/16 13:44:23;;;;;;;3.50;3.20;;;;;;;9.76;44.26;98580.06;8275844;28;20230;-70
2021/04/16 13:48:34;;;;;;;3.97;3.67;;;;;;;9.84;44.46;98574.66;8290662;28;20287;-70
2021/04/16 13:52:42;;;;;;;3.90;3.60;;;;;;;9.69;44.35;98576.00;8280446;28;20206;-68
2021/04/16 13:56:47;;;;;;;5.70;3.70;;;;;;;9.86;43.97;98579.78;8272450;28;20285;-68
2021/04/16 14:00:50;;;;;;;4.47;4.07;;;;;;;9.72;44.38;98578.47;8266341;28;20595;-69
2021/04/16 14:04:53;;;;;;;4.87;3.33;;;;;;;9.59;44.64;98577.16;8264453;28;20297;-69
2021/04/16 14:08:59;;;;;;;4.50;4.10;;;;;;;9.75;44.47;98569.78;8266797;28;20565;-68
2021/04/16 14:13:01;;;;;;;5.33;4.27;;;;;;;9.66;44.88;98575.25;8262349;28;20198;-70
2021/04/16 14:17:06;;;;;;;4.20;3.90;;;;;;;9.70;44.44;98563.91;8267060;28;20226;-68
2021/04/16 14:21:11;;;;;;;4.30;3.90;;;;;;;9.54;44.54;98573.88;8262081;28;20544;-68
2021/04/16 14:25:18;;;;;;;8.23;5.10;;;;;;;9.69;44.26;98567.38;8264072;28;20225;-70
2021/04/16 14:29:21;;;;;;;5.40;5.00;;;;;;;9.58;44.35;98570.31;8266576;28;20234;-63
2021/04/16 14:33:25;;;;;;;7.67;4.53;;;;;;;9.49;44.70;98571.41;8269117;28;20220;-63
2021/04/16 14:37:27;;;;;;;6.10;5.50;;;;;;;9.63;45.04;98564.97;8270483;28;20241;-63
2021/04/16 14:41:32;;;;;;;5.90;5.40;;;;;;;9.62;45.27;98568.47;8272722;28;20198;-65
2021/04/16 14:45:37;;;;;;;5.70;5.20;;;;;;;9.35;45.78;98571.84;8280168;28;20356;-70
2021/04/16 14:49:40;;;;;;;6.03;5.43;;;;;;;9.56;45.47;98572.09;8272476;28;20286;-70
2021/04/16 14:53:44;;;;;;;5.80;5.30;;;;;;;9.45;45.48;98575.00;8270452;28;20297;-69
2021/04/16 14:57:47;;;;;;;5.57;5.00;;;;;;;9.69;45.11;98568.25;8268019;28;20213;-69
2021/04/16 15:01:50;;;;;;;5.67;5.10;;;;;;;9.69;45.45;98573.41;8266956;28;20202;-69
2021/04/16 15:05:52;;;;;;;5.70;5.20;;;;;;;9.41;45.68;98570.81;8267559;28;20269;-70
2021/04/16 15:09:58;;;;;;;7.10;5.30;;;;;;;9.63;45.08;98567.56;8268206;28;20571;-69
2021/04/16 15:14:01;;;;;;;7.17;6.07;;;;;;;9.74;45.50;98570.66;8267530;28;20206;-69
2021/04/16 15:18:03;;;;;;;5.23;4.83;;;;;;;9.52;45.89;98566.16;8267951;28;20241;-68
2021/04/16 15:22:07;;;;;;;6.23;5.63;;;;;;;9.44;45.38;98562.94;8268105;28;20213;-70
2021/04/16 15:26:09;;;;;;;7.10;6.47;;;;;;;9.25;45.73;98564.41;8269798;28;20630;-69
2021/04/16 15:30:20;;;;;;;6.10;5.60;;;;;;;9.27;45.87;98565.19;8267424;28;20226;-68
2021/04/16 15:47:08;;;;;;;5.70;5.20;;;;;;;9.39;46.34;98554.50;8269150;28;20290;-69
2021/04/16 15:51:14;;;;;;;6.00;5.50;;;;;;;9.38;46.52;98553.63;8269114;28;20597;-67
2021/04/16 15:55:17;;;;;;;8.13;5.63;;;;;;;9.41;46.24;98557.06;8266299;28;20692;-67
2021/04/16 15:59:21;;;;;;;5.67;5.17;;;;;;;9.15;47.01;98559.50;8265759;28;20222;-67
2021/04/16 16:03:24;;;;;;;7.40;6.70;;;;;;;9.12;46.98;98550.97;8263663;28;20218;-69
2021/04/16 16:07:27;;;;;;;6.40;5.80;;;;;;;9.05;47.49;98558.06;8264799;28;20245;-69
2021/04/16 16:11:34;;;;;;;7.33;6.00;;;;;;;9.16;47.69;98552.59;8265251;28;20205;-69
2021/04/16 16:15:39;;;;;;;7.30;6.60;;;;;;;9.32;47.11;98547.81;8265350;28;20218;-68
2021/04/16 16:19:44;;;;;;;7.57;5.40;;;;;;;9.30;47.33;98555.63;8266393;28;20279;-68
2021/04/16 16:23:49;;;;;;;6.90;6.17;;;;;;;9.15;47.56;98553.47;8265483;28;20741;-69
2021/04/16 16:27:52;;;;;;;6.90;6.20;;;;;;;9.09;47.70;98556.25;8264668;28;20303;-68
2021/04/16 16:31:55;;;;;;;7.00;6.30;;;;;;;9.04;48.13;98558.94;8265250;28;20205;-69
2021/04/16 16:35:59;;;;;;;6.83;6.23;;;;;;;9.06;48.03;98556.34;8264390;28;20206;-68
2021/04/16 16:40:01;;;;;;;6.93;6.20;;;;;;;8.80;48.99;98557.94;8264318;28;20217;-68
2021/04/16 16:44:04;;;;;;;6.93;6.17;;;;;;;8.85;48.83;98555.19;8264219;28;20699;-68
2021/04/16 16:48:06;;;;;;;9.33;8.43;;;;;;;8.99;48.69;98558.25;8263789;28;20222;-68
2021/04/16 16:52:09;;;;;;;9.03;7.43;;;;;;;8.99;49.00;98553.09;8264227;28;20225;-64
2021/04/16 16:56:15;;;;;;;8.07;6.80;;;;;;;8.91;48.98;98555.91;8264210;28;20501;-65
2021/04/16 17:00:19;;;;;;;8.57;6.43;;;;;;;8.53;49.55;98559.50;8264235;28;20224;-65
2021/04/16 17:04:21;;;;;;;7.23;6.03;;;;;;;8.90;49.40;98558.50;8263717;28;20220;-65
2021/04/16 17:08:24;;;;;;;7.37;6.67;;;;;;;8.81;49.09;98562.19;8264075;28;20226;-68
2021/04/16 17:12:27;;;;;;;7.40;6.70;;;;;;;8.74;49.74;98569.28;8264399;28;20858;-68
2021/04/16 17:16:28;;;;;;;10.17;7.17;;;;;;;8.72;49.95;98571.06;8263648;28;20246;-68
2021/04/16 17:20:31;;;;;;;10.60;7.00;;;;;;;8.82;49.38;98566.47;8263803;28;20270;-68
2021/04/16 17:24:34;;;;;;;7.97;6.90;;;;;;;8.83;49.44;98563.00;8264065;28;20197;-68
2021/04/16 17:28:36;;;;;;;8.90;7.50;;;;;;;8.80;49.55;98566.50;8264743;28;20229;-68
2021/04/16 17:32:38;;;;;;;7.40;6.70;;;;;;;8.66;50.35;98570.34;8264814;28;20642;-68
2021/04/16 17:36:40;;;;;;;8.00;7.03;;;;;;;8.89;49.92;98569.72;8263826;28;20217;-66
2021/04/16 17:40:43;;;;;;;8.03;7.23;;;;;;;8.91;49.62;98568.81;8263953;28;20259;-68
2021/04/16 17:44:46;;;;;;;9.10;7.20;;;;;;;8.91;49.78;98570.53;8263320;28;20208;-68
2021/04/16 17:48:48;;;;;;;8.50;7.57;;;;;;;8.73;50.08;98569.31;8262404;28;20229;-69
2021/04/16 17:52:50;;;;;;;9.57;6.73;;;;;;;8.86;49.88;98575.00;8264287;28;20213;-67
2021/04/16 17:56:53;;;;;;;11.43;7.40;;;;;;;8.89;49.86;98580.06;8263382;28;20214;-68
2021/04/16 18:00:56;;;;;;;8.20;7.40;;;;;;;8.83;49.78;98583.66;8264170;28;20205;-68
2021/04/16 18:04:57;;;;;;;9.23;7.47;;;;;;;8.94;49.77;98583.38;8271132;28;20205;-67
2021/04/16 18:09:00;;;;;;;8.67;6.83;;;;;;;8.95;49.95;98585.06;8270614;28;20229;-67
2021/04/16 18:13:04;;;;;;;7.27;6.43;;;;;;;8.95;49.72;98591.06;8268539;28;20206;-67
2021/04/16 18:17:06;;;;;;;8.47;6.93;;;;;;;8.86;49.88;98583.56;8269097;28;20237;-67
2021/04/16 18:21:11;;;;;;;8.13;7.33;;;;;;;8.84;49.83;98585.34;8269091;28;20212;-67
2021/04/16 18:25:18;;;;;;;9.87;8.87;;;;;;;8.95;49.79;98587.66;8269178;28;20418;-67
2021/04/16 18:29:20;;;;;;;9.47;8.50;;;;;;;8.89;50.04;98582.63;8268725;28;20221;-67
2021/04/16 18:33:23;;;;;;;10.23;8.67;;;;;;;8.97;49.76;98594.47;8240563;28;20197;-67
2021/04/16 18:37:28;;;;;;;9.10;7.23;;;;;;;9.03;49.42;98593.44;8253576;28;20558;-68
2021/04/16 18:41:32;;;;;;;8.90;7.00;;;;;;;9.09;49.71;98592.44;8252002;28;20198;-67
2021/04/16 18:45:35;;;;;;;8.43;7.47;;;;;;;9.05;49.69;98602.00;8250616;28;20218;-68
2021/04/16 18:49:38;;;;;;;7.90;7.10;;;;;;;9.03;49.92;98596.03;8251347;28;20213;-68
2021/04/16 18:53:42;;;;;;;8.57;7.03;;;;;;;9.01;49.79;98600.41;8253451;28;20253;-67
2021/04/16 18:57:45;;;;;;;9.80;7.40;;;;;;;8.93;50.18;98590.28;8248405;28;20255;-67
2021/04/16 19:01:50;;;;;;;9.50;7.30;;;;;;;8.99;50.11;98595.25;8256261;28;20218;-68
2021/04/16 19:05:52;;;;;;;8.43;7.10;;;;;;;8.97;50.57;98598.78;8253472;28;20638;-67
2021/04/16 19:09:56;;;;;;;8.97;8.07;;;;;;;9.00;50.08;98601.28;8254188;28;20318;-67
2021/04/16 19:13:59;;;;;;;8.53;7.20;;;;;;;8.97;50.14;98604.78;8250202;28;20202;-67
2021/04/16 19:18:03;;;;;;;10.97;8.77;;;;;;;8.93;50.63;98603.19;8252361;28;20587;-67
2021/04/16 19:22:08;;;;;;;8.40;7.50;;;;;;;8.89;50.68;98604.16;8236164;28;20646;-67
2021/04/16 19:26:12;;;;;;;8.63;7.70;;;;;;;8.89;50.77;98611.91;8235091;28;20211;-68
2021/04/16 19:30:17;;;;;;;8.87;6.97;;;;;;;8.90;50.92;98608.44;8234805;28;20234;-68
2021/04/16 19:34:20;;;;;;;9.63;7.33;;;;;;;8.84;50.95;98610.34;8234709;28;20206;-68
2021/04/16 19:38:23;;;;;;;9.13;3.70;;;;;;;10.71;63.67;98616.72;8234410;28;20209;-69
2021/04/16 19:42:25;;;;;;;6.40;5.27;;;;;;;11.72;51.45;98612.16;8234027;28;20251;-70
2021/04/16 19:46:28;;;;;;;6.40;4.70;;;;;;;12.24;45.04;98609.25;8234166;28;20202;-70
2021/04/16 20:16:59;;;;;;;9.03;7.10;;;;;;;9.46;49.42;98594.81;8264665;28;20673;-67
2021/04/16 20:21:05;;;;;;;9.53;7.23;;;;;;;9.38;49.82;98594.16;8264928;28;20571;-67
2021/04/16 20:25:13;;;;;;;10.23;7.03;;;;;;;9.28;50.15;98596.16;8264525;28;20209;-66
2021/04/16 20:29:16;;;;;;;8.57;6.97;;;;;;;9.11;50.87;98596.66;8264794;28;20225;-66
2021/04/16 20:33:24;;;;;;;9.60;7.03;;;;;;;9.19;51.06;98586.09;8264436;28;20220;-68
2021/04/16 20:37:26;;;;;;;8.80;7.53;;;;;;;9.07;50.89;98594.22;8264529;28;20194;-66
2021/04/16 20:41:30;;;;;;;10.07;6.80;;;;;;;9.13;50.68;98592.28;8265377;28;20212;-66
2021/04/16 20:45:33;;;;;;;9.53;7.50;;;;;;;8.97;51.45;98588.47;8265963;28;20206;-66
2021/04/16 20:49:37;;;;;;;9.20;7.30;;;;;;;9.02;51.14;98590.91;8264472;28;20233;-66
2021/04/16 20:53:39;;;;;;;10.03;7.97;;;;;;;8.93;51.85;98597.16;8264818;28;20205;-66
2021/04/16 20:57:41;;;;;;;9.80;7.17;;;;;;;8.85;51.92;98597.38;8264058;28;20213;-68
2021/04/16 21:01:46;;;;;;;9.47;7.17;;;;;;;8.95;51.91;98598.81;8264146;28;20591;-67
2021/04/16 21:05:52;;;;;;;8.27;7.47;;;;;;;8.93;51.31;98594.56;8263980;28;20618;-66
2021/04/16 21:09:54;;;;;;;8.90;7.80;;;;;;;8.92;51.36;98592.91;8263829;28;20240;-67
2021/04/16 21:13:58;;;;;;;9.00;7.80;;;;;;;8.84;51.31;98590.53;8263494;28;20560;-67
2021/04/16 21:18:02;;;;;;;10.77;8.63;;;;;;;8.88;51.27;98599.88;8263821;28;20241;-67
2021/04/16 21:22:10;;;;;;;10.80;8.07;;;;;;;8.84;51.36;98594.84;8263746;28;20581;-67
2021/04/16 21:26:16;;;;;;;9.53;7.97;;;;;;;8.85;51.45;98599.94;8263581;28;20217;-67
2021/04/16 21:30:21;;;;;;;9.03;8.10;;;;;;;8.69;52.18;98604.69;8264582;28;20246;-67
2021/04/16 21:34:27;;;;;;;10.63;8.50;;;;;;;8.69;51.72;98596.94;8264620;28;20268;-67
2021/04/16 21:38:31;;;;;;;12.93;8.37;;;;;;;8.74;51.74;98602.00;8268563;28;20324;-67
2021/04/16 21:42:35;;;;;;;12.33;8.13;;;;;;;8.76;51.58;98598.47;8270158;28;20570;-66
2021/04/16 21:46:41;;;;;;;9.17;7.40;;;;;;;8.82;51.72;98602.63;8269928;28;20217;-67
2021/04/16 21:50:44;;;;;;;10.30;8.03;;;;;;;8.75;51.74;98598.53;8269688;28;20669;-67
2021/04/16 21:54:49;;;;;;;12.07;8.40;;;;;;;8.67;52.16;98587.56;8269796;28;20201;-67
2021/04/16 21:58:52;;;;;;;9.30;8.03;;;;;;;8.59;52.40;98591.19;8270240;28;20614;-67
2021/04/16 22:02:56;;;;;;;9.83;8.10;;;;;;;8.71;51.91;98594.31;8269882;28;20622;-67
2021/04/16 22:07:01;;;;;;;10.00;8.03;;;;;;;8.60;52.33;98592.03;8269630;28;20607;-67
2021/04/16 22:11:10;;;;;;;10.87;7.70;;;;;;;8.65;52.00;98589.34;8269081;28;20220;-68
2021/04/16 22:15:19;;;;;;;9.03;7.17;;;;;;;8.60;52.18;98599.75;8266444;28;20233;-67